Time;durP1;ratioP1;P1;durP2;ratioP2;P2;SDS_P1;SDS_P2;PMS_P1;PMS_P2;Temp;Humidity;BMP_temperature;BMP_pressure;BME280_temperature;BME280_humidity;BME280_pressure;Samples;Min_cycle;Max_cycle;Signal;HPM_P1;HPM_P2
2021/04/10 00:00:55;;;;;;;8.57;3.30;;;;;;;9.36;53.93;98431.06;5034474;28;20017;-73
2021/04/10 00:03:20;;;;;;;10.95;3.60;;;;;;;9.32;54.49;98433.31;5028241;28;20475;-73
2021/04/10 00:05:45;;;;;;;7.38;3.92;;;;;;;9.28;54.51;98440.16;5020063;28;20395;-73
2021/04/10 00:08:11;;;;;;;5.97;3.22;;;;;;;9.25;54.63;98437.03;5026715;28;20029;-73
2021/04/10 00:10:36;;;;;;;7.78;3.25;;;;;;;9.19;54.45;98434.09;5019004;28;20022;-73
2021/04/10 00:13:02;;;;;;;8.18;2.97;;;;;;;9.32;54.03;98436.00;5014835;28;20025;-74
2021/04/10 00:15:29;;;;;;;7.53;2.78;;;;;;;9.54;53.48;98441.25;5028538;28;20026;-73
2021/04/10 00:17:55;;;;;;;5.63;2.38;;;;;;;9.52;53.26;98433.34;5033858;28;20025;-73
2021/04/10 00:20:24;;;;;;;7.95;1.95;;;;;;;9.78;52.44;98432.53;5027541;28;20406;-73
2021/04/10 00:22:49;;;;;;;6.13;2.10;;;;;;;9.98;51.59;98421.75;5026586;28;20040;-73
2021/04/10 00:25:20;;;;;;;8.55;2.10;;;;;;;10.10;51.08;98419.22;5033864;28;20398;-73
2021/04/10 00:27:46;;;;;;;6.20;2.35;;;;;;;10.22;50.81;98430.25;5032408;28;20071;-73
2021/04/10 00:30:14;;;;;;;11.13;2.78;;;;;;;10.12;51.32;98422.56;5032720;28;20466;-73
2021/04/10 00:32:40;;;;;;;8.07;2.93;;;;;;;9.86;52.24;98426.94;5033399;28;20172;-73
2021/04/10 00:35:06;;;;;;;6.63;2.10;;;;;;;9.98;51.59;98429.84;5033413;28;20319;-73
2021/04/10 00:37:32;;;;;;;4.60;2.30;;;;;;;10.03;51.44;98421.97;5026810;28;20021;-73
2021/04/10 00:39:57;;;;;;;5.88;3.50;;;;;;;9.62;54.23;98438.34;5032733;28;20037;-73
2021/04/10 00:42:23;;;;;;;6.47;3.17;;;;;;;9.11;55.72;98444.25;5033384;28;20021;-73
2021/04/10 00:44:48;;;;;;;6.10;2.58;;;;;;;9.10;54.96;98440.72;5033573;28;20087;-73
2021/04/10 00:47:13;;;;;;;5.72;2.35;;;;;;;9.31;53.88;98412.75;5033173;28;20040;-73
2021/04/10 00:49:39;;;;;;;11.48;2.45;;;;;;;9.60;53.00;98419.66;5028443;28;20029;-74
2021/04/10 00:52:07;;;;;;;7.95;2.40;;;;;;;9.96;52.81;98436.50;5013910;28;20064;-73
2021/04/10 00:54:34;;;;;;;5.00;2.00;;;;;;;10.01;52.58;98437.53;5035045;28;20071;-74
2021/04/10 00:56:59;;;;;;;7.13;2.10;;;;;;;10.00;52.63;98422.34;5032062;28;20033;-73
2021/04/10 00:59:24;;;;;;;4.93;1.88;;;;;;;10.17;52.26;98420.06;5031430;28;20024;-72
2021/04/10 01:01:50;;;;;;;5.78;2.05;;;;;;;10.33;51.82;98423.41;5016730;28;20033;-73
2021/04/10 01:04:15;;;;;;;4.03;1.55;;;;;;;10.33;51.58;98404.47;5025340;28;20031;-72
2021/04/10 01:06:40;;;;;;;8.85;2.53;;;;;;;10.58;51.34;98418.94;5034883;28;20033;-73
2021/04/10 01:09:07;;;;;;;6.97;1.90;;;;;;;10.67;51.13;98411.44;5030217;28;20383;-73
2021/04/10 01:11:42;;;;;;;9.40;2.33;;;;;;;10.80;51.10;98422.22;5013657;28;20533;-73
2021/04/10 01:14:27;;;;;;;3.55;1.75;;;;;;;10.83;50.84;98410.13;5010899;28;20033;-73
2021/04/10 01:16:58;;;;;;;4.28;1.60;;;;;;;10.82;51.00;98398.47;5011410;28;20100;-73
2021/04/10 01:20:02;;;;;;;5.88;1.85;;;;;;;10.89;51.03;98403.84;5026881;28;20122;-73
2021/04/10 01:22:52;;;;;;;3.58;1.83;;;;;;;10.86;51.56;98391.56;5004002;28;20491;-73
2021/04/10 01:25:28;;;;;;;4.18;1.60;;;;;;;10.83;51.27;98383.06;5011869;28;20026;-74
2021/04/10 01:28:12;;;;;;;2.67;1.52;;;;;;;10.90;50.75;98367.63;5011389;28;20052;-73
2021/04/10 01:30:38;;;;;;;5.25;1.67;;;;;;;10.94;50.91;98376.97;5011232;28;20026;-73
2021/04/10 01:33:09;;;;;;;4.88;1.77;;;;;;;10.98;50.93;98380.91;5010029;28;20670;-72
2021/04/10 01:35:44;;;;;;;3.30;1.50;;;;;;;11.01;51.52;98380.47;5027596;28;20192;-73
2021/04/10 01:38:13;;;;;;;3.20;1.60;;;;;;;10.99;51.52;98393.38;5023668;28;20075;-73
2021/04/10 01:40:39;;;;;;;7.72;1.50;;;;;;;10.91;51.43;98377.41;5022554;28;20125;-74
2021/04/10 01:43:07;;;;;;;2.53;1.33;;;;;;;10.93;51.46;98388.84;5013306;28;20113;-73
2021/04/10 01:45:33;;;;;;;3.28;1.55;;;;;;;10.94;51.99;98385.91;5030555;28;20025;-74
2021/04/10 01:48:04;;;;;;;6.60;1.45;;;;;;;10.88;51.49;98384.06;5018191;28;20025;-74
2021/04/10 01:50:31;;;;;;;4.80;1.70;;;;;;;10.73;51.97;98384.34;5030608;28;20394;-73
2021/04/10 01:52:58;;;;;;;5.97;2.15;;;;;;;10.83;51.80;98404.72;5029358;28;20021;-74
2021/04/10 01:55:25;;;;;;;9.82;1.73;;;;;;;10.85;51.68;98400.75;5025807;28;20391;-75
2021/04/10 01:57:51;;;;;;;2.65;1.25;;;;;;;10.89;51.70;98398.44;5010438;28;20062;-74
2021/04/10 02:00:19;;;;;;;2.50;1.60;;;;;;;10.93;51.34;98394.25;5009631;28;20120;-74
2021/04/10 02:02:45;;;;;;;9.00;1.70;;;;;;;10.85;51.80;98392.63;5014266;28;20037;-73
2021/04/10 02:05:13;;;;;;;9.27;1.73;;;;;;;10.87;51.76;98398.66;5030585;28;20029;-73
2021/04/10 02:07:41;;;;;;;9.90;1.60;;;;;;;10.95;51.50;98394.84;5030033;28;20091;-73
2021/04/10 02:10:07;;;;;;;3.17;1.40;;;;;;;11.04;50.87;98404.41;5030456;28;20085;-73
2021/04/10 02:12:33;;;;;;;7.68;1.58;;;;;;;11.03;51.25;98399.19;5030177;28;20029;-73
2021/04/10 02:15:00;;;;;;;7.13;1.65;;;;;;;10.89;52.62;98393.03;5025244;28;20119;-74
2021/04/10 02:17:28;;;;;;;4.50;1.58;;;;;;;11.00;51.00;98376.09;5023767;28;20036;-73
2021/04/10 02:19:53;;;;;;;5.32;1.60;;;;;;;10.85;52.04;98351.22;5020483;28;20068;-74
2021/04/10 02:22:20;;;;;;;4.07;1.02;;;;;;;10.88;52.84;98372.44;5025048;28;20081;-72
2021/04/10 02:24:46;;;;;;;3.05;1.35;;;;;;;10.89;51.68;98365.97;5028684;28;20033;-72
2021/04/10 02:27:11;;;;;;;5.10;1.38;;;;;;;10.82;51.55;98366.00;5035575;28;20025;-72
2021/04/10 02:29:37;;;;;;;6.05;1.35;;;;;;;10.88;51.22;98384.06;5026928;28;20018;-72
2021/04/10 02:32:17;;;;;;;3.58;1.70;;;;;;;11.03;50.55;98388.38;5017201;28;20482;-72
2021/04/10 02:35:02;;;;;;;5.68;1.77;;;;;;;10.96;51.02;98377.59;5026396;28;20034;-71
2021/04/10 02:37:30;;;;;;;2.80;1.17;;;;;;;11.02;50.75;98375.88;5017272;28;20029;-71
2021/04/10 02:39:56;;;;;;;6.05;1.80;;;;;;;11.08;50.75;98385.84;5017835;28;20033;-72
2021/04/10 02:42:24;;;;;;;5.88;1.52;;;;;;;10.97;51.21;98380.06;5018538;28;20018;-74
2021/04/10 02:44:52;;;;;;;3.92;1.75;;;;;;;10.95;51.73;98387.59;5031626;28;20026;-74
2021/04/10 02:47:23;;;;;;;3.80;1.27;;;;;;;10.84;52.00;98390.94;5019165;28;20086;-76
2021/04/10 02:49:52;;;;;;;6.15;2.03;;;;;;;10.70;52.21;98379.38;5025024;28;20414;-74
2021/04/10 02:52:27;;;;;;;2.80;1.23;;;;;;;10.69;52.57;98377.72;5018463;28;20372;-71
2021/04/10 02:54:53;;;;;;;8.07;1.75;;;;;;;10.79;52.40;98387.22;5025069;28;20116;-74
2021/04/10 02:57:21;;;;;;;5.30;1.52;;;;;;;10.74;52.09;98377.91;5035378;28;20041;-73
2021/04/10 02:59:49;;;;;;;5.13;1.35;;;;;;;10.73;52.23;98384.34;5036976;28;20028;-74
2021/04/10 03:02:16;;;;;;;4.27;1.10;;;;;;;10.70;52.37;98370.44;5033947;28;20099;-73
2021/04/10 03:04:42;;;;;;;2.80;1.30;;;;;;;10.78;52.20;98391.00;5017332;28;20275;-73
2021/04/10 03:07:09;;;;;;;3.42;1.52;;;;;;;10.78;52.14;98391.00;5032700;28;20503;-73
2021/04/10 03:09:44;;;;;;;6.45;1.80;;;;;;;10.83;52.37;98393.91;5024201;28;20534;-73
2021/04/10 03:12:15;;;;;;;9.00;2.35;;;;;;;10.71;52.38;98381.00;5036222;28;20530;-74
2021/04/10 03:14:41;;;;;;;8.50;1.80;;;;;;;10.71;52.47;98386.44;5034749;28;20029;-73
2021/04/10 03:17:09;;;;;;;3.97;1.90;;;;;;;10.73;52.43;98392.47;5029212;28;20618;-73
2021/04/10 03:19:37;;;;;;;3.88;1.70;;;;;;;10.86;52.28;98398.88;5035210;28;20053;-73
2021/04/10 03:22:02;;;;;;;8.75;1.33;;;;;;;10.80;52.28;98397.03;5017171;28;20026;-73
2021/04/10 03:24:28;;;;;;;5.95;1.25;;;;;;;10.78;52.63;98410.75;5015926;28;20036;-73
2021/04/10 03:26:55;;;;;;;3.47;1.13;;;;;;;10.69;52.84;98404.78;5024403;28;20091;-74
2021/04/10 03:29:21;;;;;;;3.60;1.23;;;;;;;10.67;52.63;98409.56;5035453;28;20400;-73
2021/04/10 03:31:47;;;;;;;3.03;1.10;;;;;;;10.83;52.40;98404.72;5036686;28;20101;-73
2021/04/10 03:34:13;;;;;;;4.38;1.10;;;;;;;10.76;52.40;98399.31;5037359;28;20108;-73
2021/04/10 03:36:38;;;;;;;2.00;1.20;;;;;;;10.94;52.05;98402.16;5037824;28;20064;-73
2021/04/10 03:39:04;;;;;;;3.20;0.98;;;;;;;10.96;52.35;98412.78;5032784;28;20034;-73
2021/04/10 03:41:30;;;;;;;3.88;1.15;;;;;;;10.88;52.29;98404.91;5015505;28;20021;-74
2021/04/10 03:43:55;;;;;;;5.40;1.00;;;;;;;10.85;52.43;98398.03;5022377;28;20041;-73
2021/04/10 03:46:20;;;;;;;4.47;0.93;;;;;;;10.89;52.80;98407.38;5035257;28;20025;-73
2021/04/10 03:48:47;;;;;;;2.20;0.90;;;;;;;10.78;52.73;98397.25;5034131;28;20029;-74
2021/04/10 03:51:13;;;;;;;2.25;0.95;;;;;;;10.75;52.70;98394.97;5031355;28;20049;-73
2021/04/10 03:53:39;;;;;;;6.43;0.93;;;;;;;10.77;52.81;98381.19;5013483;28;20112;-73
2021/04/10 03:56:04;;;;;;;3.42;1.05;;;;;;;10.91;52.68;98402.59;5013166;28;20114;-74
2021/04/10 03:58:30;;;;;;;7.47;1.00;;;;;;;10.88;52.67;98403.03;5029128;28;20479;-74
2021/04/10 04:00:55;;;;;;;2.42;1.10;;;;;;;10.84;52.87;98400.94;5033051;28;20108;-72
2021/04/10 04:03:20;;;;;;;2.90;0.60;;;;;;;10.88;53.07;98403.03;5032554;28;20051;-72
2021/04/10 04:05:46;;;;;;;5.72;1.02;;;;;;;10.83;53.47;98416.38;5020788;28;20034;-72
2021/04/10 04:08:11;;;;;;;1.83;0.85;;;;;;;10.69;53.96;98398.53;5012727;28;20108;-72
2021/04/10 04:10:36;;;;;;;2.10;1.10;;;;;;;10.77;54.13;98424.50;5024678;28;20021;-73
2021/04/10 04:13:02;;;;;;;4.40;1.20;;;;;;;10.63;54.57;98421.84;5022171;28;20026;-73
2021/04/10 04:15:27;;;;;;;1.77;0.93;;;;;;;10.73;54.85;98429.50;5032433;28;20025;-72
2021/04/10 04:17:52;;;;;;;2.40;0.90;;;;;;;10.62;55.06;98403.13;5033380;28;20049;-72
2021/04/10 04:20:20;;;;;;;3.75;0.68;;;;;;;10.71;55.44;98424.31;5029700;28;20078;-74
2021/04/10 04:22:45;;;;;;;2.47;0.90;;;;;;;10.66;55.75;98421.44;5032955;28;20487;-74
2021/04/10 04:25:11;;;;;;;5.35;1.10;;;;;;;10.61;55.84;98418.53;5023517;28;20048;-70
2021/04/10 04:27:37;;;;;;;2.55;1.30;;;;;;;10.73;56.55;98441.16;5031477;28;20021;-71
2021/04/10 04:30:07;;;;;;;1.35;0.70;;;;;;;10.59;56.92;98419.78;5031047;28;20029;-70
2021/04/10 04:32:32;;;;;;;4.88;1.23;;;;;;;10.74;56.96;98432.03;5033304;28;20025;-74
2021/04/10 04:34:58;;;;;;;1.42;0.77;;;;;;;10.62;57.03;98431.00;5023855;28;20480;-73
2021/04/10 04:37:23;;;;;;;3.13;0.90;;;;;;;10.63;57.59;98437.25;5026042;28;20025;-72
2021/04/10 04:39:48;;;;;;;3.60;1.02;;;;;;;10.69;57.26;98441.81;5032172;28;20029;-74
2021/04/10 04:42:14;;;;;;;4.55;1.10;;;;;;;10.71;57.76;98459.47;5031219;28;20536;-70
2021/04/10 04:44:39;;;;;;;3.60;1.08;;;;;;;10.66;58.24;98451.19;5034289;28;20117;-78
2021/04/10 04:47:04;;;;;;;6.88;1.08;;;;;;;10.66;59.22;98462.03;5028168;28;20025;-69
2021/04/10 04:49:30;;;;;;;3.30;1.25;;;;;;;10.64;59.77;98464.09;5027528;28;20390;-75
2021/04/10 04:51:56;;;;;;;2.17;0.95;;;;;;;10.62;60.29;98468.88;5038961;28;20025;-69
2021/04/10 04:54:21;;;;;;;5.22;1.10;;;;;;;10.61;60.48;98472.66;5043463;28;20118;-73
2021/04/10 04:56:47;;;;;;;5.50;1.15;;;;;;;10.52;60.94;98468.50;5047115;28;20088;-72
2021/04/10 04:59:12;;;;;;;3.95;1.10;;;;;;;10.52;60.93;98468.50;5048332;28;20037;-73
2021/04/10 05:01:38;;;;;;;2.97;1.20;;;;;;;10.45;61.07;98464.97;5047527;28;20040;-70
2021/04/10 05:04:03;;;;;;;2.53;0.90;;;;;;;10.50;61.22;98487.63;5045527;28;20036;-71
2021/04/10 05:06:28;;;;;;;5.57;1.10;;;;;;;10.46;61.22;98474.75;5046090;28;20052;-72
2021/04/10 05:08:54;;;;;;;3.80;0.98;;;;;;;10.42;61.46;98484.31;5024059;28;20038;-68
2021/04/10 05:11:19;;;;;;;5.03;0.95;;;;;;;10.43;61.20;98492.22;5024025;28;20021;-68
2021/04/10 05:13:44;;;;;;;2.17;1.02;;;;;;;10.44;61.32;98483.06;5034022;28;20037;-73
2021/04/10 05:16:09;;;;;;;4.53;0.95;;;;;;;10.50;61.13;98497.63;5038111;28;20033;-72
2021/04/10 05:18:35;;;;;;;2.80;1.20;;;;;;;10.46;61.44;98491.81;5025703;28;20042;-72
2021/04/10 05:21:00;;;;;;;7.35;1.40;;;;;;;10.52;61.15;98504.47;5028188;28;20048;-72
2021/04/10 05:23:26;;;;;;;4.55;1.20;;;;;;;10.33;61.69;98491.81;5012512;28;20664;-72
2021/04/10 05:25:52;;;;;;;4.00;0.88;;;;;;;10.47;61.20;98508.84;5036009;28;20025;-71
2021/04/10 05:28:18;;;;;;;2.53;0.95;;;;;;;10.49;60.69;98495.97;5042937;28;20048;-72
2021/04/10 05:30:44;;;;;;;3.33;1.10;;;;;;;10.51;60.74;98504.69;5042306;28;20039;-72
2021/04/10 05:33:09;;;;;;;5.80;1.10;;;;;;;10.48;60.45;98513.25;5039083;28;20026;-71
2021/04/10 05:35:36;;;;;;;5.22;0.70;;;;;;;10.46;60.33;98518.84;5043244;28;20021;-71
2021/04/10 05:38:02;;;;;;;2.53;0.73;;;;;;;10.51;59.74;98519.06;5040790;28;20029;-68
2021/04/10 05:40:27;;;;;;;2.97;1.00;;;;;;;10.63;59.78;98535.47;5036582;28;20054;-73
2021/04/10 05:42:52;;;;;;;2.83;0.93;;;;;;;10.58;59.68;98520.91;5031334;28;20009;-72
2021/04/10 05:45:18;;;;;;;3.38;0.93;;;;;;;10.68;59.26;98540.25;5050923;28;20041;-72
2021/04/10 05:47:43;;;;;;;2.70;0.80;;;;;;;10.67;58.99;98547.53;5044926;28;20027;-74
2021/04/10 05:50:09;;;;;;;3.97;0.90;;;;;;;10.63;59.27;98543.59;5032895;28;20071;-73
2021/04/10 05:52:35;;;;;;;2.97;0.88;;;;;;;10.60;59.67;98552.13;5031936;28;20022;-73
2021/04/10 05:55:01;;;;;;;2.13;0.80;;;;;;;10.63;59.63;98550.88;5024561;28;20029;-71
2021/04/10 05:57:27;;;;;;;4.63;1.05;;;;;;;10.53;59.58;98535.06;5017410;28;20026;-70
2021/04/10 05:59:52;;;;;;;2.67;0.90;;;;;;;10.62;59.64;98558.16;5029153;28;20033;-70
2021/04/10 06:02:18;;;;;;;3.25;0.95;;;;;;;10.62;59.74;98549.22;5027493;28;20029;-71
2021/04/10 06:04:43;;;;;;;3.22;0.90;;;;;;;10.61;59.58;98561.06;5013828;28;20475;-71
2021/04/10 06:07:08;;;;;;;5.38;1.00;;;;;;;10.63;59.64;98557.09;5014708;28;20035;-70
2021/04/10 06:09:33;;;;;;;2.85;1.10;;;;;;;10.53;59.85;98562.09;5028284;28;20053;-71
2021/04/10 06:11:59;;;;;;;4.53;1.10;;;;;;;10.57;60.17;98560.66;5029838;28;20130;-71
2021/04/10 06:14:24;;;;;;;3.05;0.88;;;;;;;10.56;59.84;98560.84;5023014;28;20033;-70
2021/04/10 06:16:50;;;;;;;3.65;1.15;;;;;;;10.51;60.19;98562.34;5009485;28;20030;-71
2021/04/10 06:19:15;;;;;;;4.03;0.88;;;;;;;10.51;60.22;98562.34;5009404;28;20119;-70
2021/04/10 06:21:41;;;;;;;4.60;1.15;;;;;;;10.55;60.35;98570.03;5009469;28;20037;-70
2021/04/10 06:24:07;;;;;;;3.58;0.80;;;;;;;10.44;60.46;98574.19;5014470;28;20034;-70
2021/04/10 06:26:33;;;;;;;1.80;0.85;;;;;;;10.35;60.85;98578.97;5023111;28;20037;-70
2021/04/10 06:28:58;;;;;;;2.08;0.90;;;;;;;10.40;60.65;98575.63;5028681;28;20044;-70
2021/04/10 06:31:23;;;;;;;5.65;0.95;;;;;;;10.46;60.29;98593.75;5018714;28;20026;-70
2021/04/10 06:33:50;;;;;;;4.07;0.80;;;;;;;10.41;60.31;98588.13;5018870;28;20052;-70
2021/04/10 06:36:15;;;;;;;2.97;0.77;;;;;;;10.49;60.08;98577.09;5025084;28;20100;-70
2021/04/10 06:38:40;;;;;;;2.05;1.00;;;;;;;10.43;60.12;98580.66;5011674;28;20044;-70
2021/04/10 06:41:06;;;;;;;5.28;0.80;;;;;;;10.50;59.47;98584.16;5027839;28;20836;-72
2021/04/10 06:43:31;;;;;;;1.65;0.93;;;;;;;10.51;59.65;98594.78;5026689;28;20497;-72
2021/04/10 06:45:58;;;;;;;2.97;0.88;;;;;;;10.57;59.49;98587.72;5025908;28;20579;-73
2021/04/10 06:48:26;;;;;;;3.72;1.02;;;;;;;10.56;59.86;98609.56;5023917;28;20075;-73
2021/04/10 06:50:51;;;;;;;4.00;1.30;;;;;;;10.45;59.58;98587.53;5024655;28;20033;-71
2021/04/10 06:53:17;;;;;;;4.45;0.95;;;;;;;10.48;59.78;98594.38;5010599;28;20030;-70
2021/04/10 06:55:51;;;;;;;4.25;1.02;;;;;;;10.63;59.43;98588.75;5012367;28;20037;-68
2021/04/10 06:58:36;;;;;;;2.85;1.05;;;;;;;10.74;58.94;98602.50;5022486;28;20088;-69
2021/04/10 07:01:02;;;;;;;2.38;1.10;;;;;;;10.87;58.82;98589.97;5027730;28;20052;-68
2021/04/10 07:03:27;;;;;;;3.45;1.17;;;;;;;11.02;58.52;98598.69;5027977;28;20033;-69
2021/04/10 07:05:53;;;;;;;4.05;1.30;;;;;;;11.06;58.40;98605.34;5010113;28;20030;-68
2021/04/10 07:08:22;;;;;;;4.90;1.50;;;;;;;11.08;58.32;98587.03;5011408;28;20117;-72
2021/04/10 07:10:50;;;;;;;1.58;0.90;;;;;;;11.27;57.71;98606.16;5024026;28;20017;-71
2021/04/10 07:13:16;;;;;;;2.83;1.40;;;;;;;11.42;57.55;98593.16;5031357;28;20026;-71
2021/04/10 07:15:41;;;;;;;1.67;1.10;;;;;;;11.60;57.44;98601.41;5032197;28;20028;-71
2021/04/10 07:18:07;;;;;;;3.88;1.15;;;;;;;11.56;57.26;98604.78;5025230;28;20030;-70
2021/04/10 07:20:36;;;;;;;1.98;1.00;;;;;;;11.57;57.31;98601.84;5013146;28;20029;-69
2021/04/10 07:23:07;;;;;;;3.33;1.20;;;;;;;11.52;57.56;98606.25;5032126;28;20055;-70
2021/04/10 07:25:36;;;;;;;3.50;0.90;;;;;;;11.43;57.57;98604.84;5027374;28;20032;-70
2021/04/10 07:28:21;;;;;;;4.88;1.13;;;;;;;11.32;57.70;98596.34;5019904;28;20036;-70
2021/04/10 07:30:53;;;;;;;5.15;1.10;;;;;;;11.35;58.01;98614.88;5028571;28;20124;-76
2021/04/10 07:33:22;;;;;;;4.75;1.50;;;;;;;11.23;58.05;98611.13;5029081;28;20063;-72
2021/04/10 07:35:48;;;;;;;6.25;1.08;;;;;;;11.34;58.21;98606.94;5032588;28;20033;-73
2021/04/10 07:38:25;;;;;;;6.82;1.40;;;;;;;11.32;58.53;98618.00;5029055;28;20479;-73
2021/04/10 07:40:50;;;;;;;3.00;1.35;;;;;;;11.25;58.34;98608.22;5022170;28;20588;-75
2021/04/10 07:43:31;;;;;;;2.85;0.68;;;;;;;11.40;58.26;98622.34;5032500;28;20114;-76
2021/04/10 07:46:16;;;;;;;3.47;1.00;;;;;;;11.26;58.34;98624.25;5028811;28;20042;-71
2021/04/10 07:49:04;;;;;;;2.83;0.73;;;;;;;11.29;58.29;98625.69;5018146;28;20487;-75
2021/04/10 07:51:31;;;;;;;6.03;0.90;;;;;;;11.18;58.66;98635.31;5020084;28;20567;-77
2021/04/10 07:53:58;;;;;;;1.40;0.70;;;;;;;11.21;58.97;98632.19;5025168;28;20069;-70
2021/04/10 07:56:24;;;;;;;3.08;0.90;;;;;;;11.16;58.59;98621.16;5028500;28;20032;-72
2021/04/10 07:58:49;;;;;;;7.35;1.08;;;;;;;11.15;58.89;98614.91;5032257;28;20033;-73
2021/04/10 08:01:15;;;;;;;2.15;0.82;;;;;;;11.04;59.26;98629.09;5015843;28;20022;-72
2021/04/10 08:03:43;;;;;;;3.25;1.02;;;;;;;10.96;59.45;98621.19;5012673;28;20076;-74
2021/04/10 08:06:08;;;;;;;2.58;1.20;;;;;;;11.02;59.63;98641.19;5020753;28;20045;-73
2021/04/10 08:08:54;;;;;;;3.83;1.10;;;;;;;11.02;59.61;98639.28;5032161;28;20053;-69
2021/04/10 08:11:38;;;;;;;5.15;1.15;;;;;;;11.07;59.34;98652.22;5030697;28;20061;-74
2021/04/10 08:14:07;;;;;;;3.65;1.20;;;;;;;11.06;59.61;98654.09;5027619;28;20032;-73
2021/04/10 08:16:41;;;;;;;4.90;1.38;;;;;;;11.06;59.60;98645.13;5022418;28;20021;-74
2021/04/10 08:19:07;;;;;;;2.33;0.98;;;;;;;11.18;59.61;98654.28;5017980;28;20053;-73
2021/04/10 08:21:32;;;;;;;3.97;1.48;;;;;;;11.23;59.34;98648.22;5025547;28;20183;-74
2021/04/10 08:24:03;;;;;;;5.65;1.27;;;;;;;11.24;59.18;98647.16;5030492;28;20072;-70
2021/04/10 08:26:29;;;;;;;2.90;1.15;;;;;;;11.23;59.61;98654.47;5031094;28;20033;-74
2021/04/10 08:28:54;;;;;;;3.47;0.98;;;;;;;11.20;59.88;98654.91;5028481;28;20394;-73
2021/04/10 08:31:20;;;;;;;1.48;0.82;;;;;;;11.12;60.09;98657.81;5030429;28;20013;-71
2021/04/10 08:33:46;;;;;;;1.98;0.85;;;;;;;11.08;60.27;98652.00;5035543;28;20083;-73
2021/04/10 08:36:12;;;;;;;1.30;0.85;;;;;;;11.17;60.29;98656.16;5029305;28;20033;-73
2021/04/10 08:38:40;;;;;;;1.35;0.80;;;;;;;11.24;59.93;98661.56;5030518;28;20125;-73
2021/04/10 08:41:07;;;;;;;2.47;0.98;;;;;;;11.23;59.80;98653.63;5031347;28;20060;-72
2021/04/10 08:43:39;;;;;;;2.65;1.10;;;;;;;11.32;60.25;98665.94;5025366;28;20025;-70
2021/04/10 08:46:08;;;;;;;2.65;0.93;;;;;;;11.38;60.32;98657.78;5015276;28;20026;-69
2021/04/10 08:48:34;;;;;;;2.80;1.27;;;;;;;11.24;61.09;98656.16;5012908;28;20092;-69
2021/04/10 08:51:04;;;;;;;3.50;1.00;;;;;;;11.24;60.21;98649.88;5026308;28;20171;-69
2021/04/10 08:53:44;;;;;;;7.28;1.08;;;;;;;11.16;61.41;98670.75;5017905;28;20088;-70
2021/04/10 08:56:10;;;;;;;2.30;0.90;;;;;;;11.07;61.72;98666.56;5017078;28;20033;-69
2021/04/10 08:58:40;;;;;;;4.40;1.33;;;;;;;11.06;62.33;98664.91;5024702;28;20504;-69
2021/04/10 09:01:23;;;;;;;2.20;1.17;;;;;;;10.93;62.35;98664.94;5026846;28;20029;-69
2021/04/10 09:03:52;;;;;;;2.20;1.08;;;;;;;11.11;61.97;98667.00;5024253;28;20095;-69
2021/04/10 09:06:37;;;;;;;3.08;1.27;;;;;;;11.32;62.29;98668.63;5017999;28;20033;-69
2021/04/10 09:09:12;;;;;;;3.05;1.40;;;;;;;11.59;61.43;98669.41;5027416;28;20041;-69
2021/04/10 09:11:45;;;;;;;3.92;1.05;;;;;;;11.79;60.07;98664.75;5023491;28;20049;-69
2021/04/10 09:14:34;;;;;;;3.50;1.02;;;;;;;11.98;59.45;98668.44;5020381;28;20040;-71
2021/04/10 09:17:00;;;;;;;3.05;0.90;;;;;;;12.03;59.71;98665.09;5013893;28;20037;-71
2021/04/10 09:19:26;;;;;;;2.22;0.80;;;;;;;12.24;58.44;98667.47;5025921;28;20021;-70
2021/04/10 09:21:57;;;;;;;7.97;1.20;;;;;;;12.33;58.56;98662.59;5024553;28;20036;-69
2021/04/10 09:24:23;;;;;;;5.10;1.42;;;;;;;12.58;57.80;98678.94;5028172;28;20487;-69
2021/04/10 09:27:18;;;;;;;2.65;0.90;;;;;;;12.85;57.58;98673.31;5024505;28;20048;-69
2021/04/10 09:30:04;;;;;;;2.53;1.00;;;;;;;13.15;55.78;98673.47;5024840;28;20036;-69
2021/04/10 09:32:33;;;;;;;3.33;1.30;;;;;;;13.49;55.38;98658.53;5027612;28;20095;-69
2021/04/10 09:35:03;;;;;;;;;;;;;;;13.35;56.42;98674.13;5018643;28;20061;-69
2021/04/10 09:37:28;;;;;;;2.47;1.13;;;;;;;13.53;55.39;98667.88;5028921;28;19959;-70
2021/04/10 09:40:00;;;;;;;3.83;1.20;;;;;;;13.69;54.97;98661.03;5018264;28;20030;-69
2021/04/10 09:42:38;;;;;;;1.63;1.00;;;;;;;13.42;54.87;98662.38;5014580;28;20024;-69
2021/04/10 09:45:29;;;;;;;2.40;0.93;;;;;;;12.87;56.24;98661.19;5017390;28;20052;-69
2021/04/10 09:47:54;;;;;;;1.67;0.88;;;;;;;12.48;57.11;98657.72;5025708;28;20040;-69
2021/04/10 09:50:30;;;;;;;2.88;1.30;;;;;;;12.30;57.93;98659.50;5026017;28;20028;-68
2021/04/10 09:53:18;;;;;;;1.80;1.10;;;;;;;12.33;57.88;98657.19;5023838;28;20108;-69
2021/04/10 09:55:48;;;;;;;3.30;0.82;;;;;;;12.25;58.08;98660.16;5022367;28;20083;-69
2021/04/10 09:58:16;;;;;;;4.95;0.90;;;;;;;12.18;58.65;98653.94;5024681;28;20033;-69
2021/04/10 10:00:48;;;;;;;3.05;1.42;;;;;;;12.09;58.74;98652.53;5028545;28;20104;-68
2021/04/10 10:03:15;;;;;;;3.10;0.80;;;;;;;11.68;59.31;98629.31;5009023;28;20068;-69
2021/04/10 10:05:44;;;;;;;2.58;0.80;;;;;;;11.87;59.24;98657.41;5019199;28;20116;-69
2021/04/10 10:08:15;;;;;;;4.65;1.38;;;;;;;12.01;59.44;98649.03;5023589;28;22171;-69
2021/04/10 10:10:49;;;;;;;5.88;0.82;;;;;;;11.84;59.39;98655.94;5024971;28;20029;-69
2021/04/10 10:13:16;;;;;;;3.95;1.48;;;;;;;11.99;58.77;98653.81;5025385;28;20040;-69
2021/04/10 10:15:44;;;;;;;3.35;0.90;;;;;;;11.92;59.33;98658.47;5027486;28;20033;-69
2021/04/10 10:18:16;;;;;;;4.97;1.27;;;;;;;12.07;58.60;98656.28;5025891;28;20032;-69
2021/04/10 10:21:05;;;;;;;2.67;1.15;;;;;;;12.08;58.69;98659.84;5035334;28;20491;-69
2021/04/10 10:23:41;;;;;;;5.53;1.20;;;;;;;12.00;58.94;98655.50;5025586;28;20030;-69
2021/04/10 10:26:18;;;;;;;2.65;1.10;;;;;;;12.02;58.70;98649.84;5023962;28;20033;-69
2021/04/10 10:28:46;;;;;;;2.63;1.13;;;;;;;12.02;58.82;98657.97;5024523;28;20025;-69
2021/04/10 10:31:17;;;;;;;2.33;1.08;;;;;;;11.98;58.13;98657.59;5009625;28;20041;-69
2021/04/10 10:33:43;;;;;;;5.93;1.35;;;;;;;12.05;58.42;98660.25;5007703;28;20399;-69
2021/04/10 10:36:10;;;;;;;1.85;0.80;;;;;;;12.12;57.67;98652.09;5017119;28;20403;-70
2021/04/10 10:38:38;;;;;;;2.53;1.25;;;;;;;12.03;57.99;98657.78;5023802;28;20052;-69
2021/04/10 10:41:08;;;;;;;2.08;1.00;;;;;;;11.91;58.00;98635.09;5007707;28;20574;-69
2021/04/10 10:43:34;;;;;;;2.42;1.10;;;;;;;11.79;58.21;98647.66;5020050;28;20693;-67
2021/04/10 10:46:02;;;;;;;3.22;1.45;;;;;;;11.68;58.77;98626.63;5028411;28;20782;-68
2021/04/10 10:48:31;;;;;;;2.13;0.93;;;;;;;11.88;58.82;98638.25;5020440;28;20475;-68
2021/04/10 10:50:59;;;;;;;4.35;1.00;;;;;;;12.10;57.87;98651.47;5018010;28;20037;-68
2021/04/10 10:53:27;;;;;;;5.18;0.93;;;;;;;12.18;57.41;98638.50;5018278;28;20041;-68
2021/04/10 10:56:20;;;;;;;2.42;1.10;;;;;;;12.15;57.99;98635.38;5026864;28;20108;-69
2021/04/10 10:58:46;;;;;;;2.72;1.52;;;;;;;12.31;57.87;98634.03;5027498;28;20045;-69
2021/04/10 11:01:19;;;;;;;1.73;1.10;;;;;;;12.50;56.92;98642.06;5024112;28;20407;-69
2021/04/10 11:03:53;;;;;;;2.75;1.48;;;;;;;12.36;57.14;98621.47;5028571;28;20033;-68
2021/04/10 11:06:22;;;;;;;2.65;1.40;;;;;;;12.80;55.93;98633.25;5031654;28;20044;-69
2021/04/10 11:08:48;;;;;;;3.08;1.50;;;;;;;12.84;56.38;98629.06;5023699;28;20026;-69
2021/04/10 11:11:15;;;;;;;3.45;1.00;;;;;;;13.12;55.26;98608.72;5021691;28;20077;-69
2021/04/10 11:13:43;;;;;;;3.13;1.30;;;;;;;13.53;54.41;98626.28;5027068;28;20539;-69
2021/04/10 11:16:09;;;;;;;3.17;1.20;;;;;;;13.95;53.74;98607.38;5029238;28;20407;-69
2021/04/10 11:18:35;;;;;;;8.90;2.67;;;;;;;14.49;52.22;98613.69;5036022;28;20423;-68
2021/04/10 11:21:14;;;;;;;3.42;1.60;;;;;;;14.59;51.00;98605.81;5025206;28;20038;-69
2021/04/10 11:23:58;;;;;;;2.58;1.30;;;;;;;14.67;50.90;98608.19;5021644;28;20040;-70
2021/04/10 11:26:44;;;;;;;4.50;1.67;;;;;;;14.56;50.94;98591.84;5028135;28;20402;-69
2021/04/10 11:29:13;;;;;;;3.22;1.20;;;;;;;14.54;51.06;98613.88;5017154;28;20029;-69
2021/04/10 11:31:38;;;;;;;;;;;;;;;14.96;50.36;98602.03;5027949;28;20055;-69
2021/04/10 11:34:31;;;;;;;2.72;1.55;;;;;;;15.18;50.11;98596.84;5026636;28;20370;-69
2021/04/10 11:36:58;;;;;;;4.07;1.27;;;;;;;15.11;49.70;98592.31;5026411;28;20049;-69
2021/04/10 11:39:24;;;;;;;3.05;1.30;;;;;;;15.41;49.29;98594.09;5024287;28;20033;-69
2021/04/10 11:41:50;;;;;;;6.25;1.40;;;;;;;15.63;48.57;98591.53;5024724;28;20155;-70